sensor_id;sensor_type;location;lat;lon;timestamp;temperature;humidity
69938;DHT22;57248;47.320;15.998;2024-01-16T00:01:44;0.16;68.30
69938;DHT22;57248;47.320;15.998;2024-01-16T00:04:16;0.01;68.69
69938;DHT22;57248;47.320;15.998;2024-01-16T00:06:48;-0.13;69.27
69938;DHT22;57248;47.320;15.998;2024-01-16T00:09:21;-0.33;70.69
69938;DHT22;57248;47.320;15.998;2024-01-16T00:11:53;-0.47;71.58
69938;DHT22;57248;47.320;15.998;2024-01-16T00:14:25;-0.68;71.83
69938;DHT22;57248;47.320;15.998;2024-01-16T00:16:50;-0.58;70.49
69938;DHT22;57248;47.320;15.998;2024-01-16T00:19:22;-0.47;70.22
69938;DHT22;57248;47.320;15.998;2024-01-16T00:21:54;-0.30;69.76
69938;DHT22;57248;47.320;15.998;2024-01-16T00:24:26;-0.16;69.06
69938;DHT22;57248;47.320;15.998;2024-01-16T00:26:58;-0.20;69.50
69938;DHT22;57248;47.320;15.998;2024-01-16T00:29:23;-0.33;69.91
69938;DHT22;57248;47.320;15.998;2024-01-16T00:31:55;-0.23;69.41
69938;DHT22;57248;47.320;15.998;2024-01-16T00:34:27;-0.34;70.03
69938;DHT22;57248;47.320;15.998;2024-01-16T00:37:00;-0.53;70.88
69938;DHT22;57248;47.320;15.998;2024-01-16T00:39:33;-0.64;70.96
69938;DHT22;57248;47.320;15.998;2024-01-16T00:42:05;-0.68;71.34
69938;DHT22;57248;47.320;15.998;2024-01-16T00:44:37;-0.66;71.13
69938;DHT22;57248;47.320;15.998;2024-01-16T00:47:09;-0.91;72.27
69938;DHT22;57248;47.320;15.998;2024-01-16T00:49:41;-0.83;72.00
69938;DHT22;57248;47.320;15.998;2024-01-16T00:52:13;-0.67;70.95
69938;DHT22;57248;47.320;15.998;2024-01-16T00:54:45;-0.71;70.90
69938;DHT22;57248;47.320;15.998;2024-01-16T00:57:10;-0.73;71.19
69938;DHT22;57248;47.320;15.998;2024-01-16T00:59:42;-0.87;71.78
69938;DHT22;57248;47.320;15.998;2024-01-16T01:02:14;-0.61;70.26
69938;DHT22;57248;47.320;15.998;2024-01-16T01:04:47;-0.70;69.78
69938;DHT22;57248;47.320;15.998;2024-01-16T01:07:19;-0.83;71.16
69938;DHT22;57248;47.320;15.998;2024-01-16T01:09:51;-1.18;72.86
69938;DHT22;57248;47.320;15.998;2024-01-16T01:12:23;-1.15;72.16
69938;DHT22;57248;47.320;15.998;2024-01-16T01:14:58;-1.02;70.82
69938;DHT22;57248;47.320;15.998;2024-01-16T01:17:30;-1.01;70.57
69938;DHT22;57248;47.320;15.998;2024-01-16T01:20:02;-0.95;70.44
69938;DHT22;57248;47.320;15.998;2024-01-16T01:22:34;-1.04;70.75
69938;DHT22;57248;47.320;15.998;2024-01-16T01:25:07;-1.13;70.65
69938;DHT22;57248;47.320;15.998;2024-01-16T01:27:39;-1.25;71.57
69938;DHT22;57248;47.320;15.998;2024-01-16T01:30:12;-1.32;71.37
69938;DHT22;57248;47.320;15.998;2024-01-16T01:32:51;-0.94;69.16
69938;DHT22;57248;47.320;15.998;2024-01-16T01:35:23;-0.34;65.05
69938;DHT22;57248;47.320;15.998;2024-01-16T01:37:55;-0.12;63.62
69938;DHT22;57248;47.320;15.998;2024-01-16T01:40:27;-0.10;64.19
69938;DHT22;57248;47.320;15.998;2024-01-16T01:43:17;-0.29;64.72
69938;DHT22;57248;47.320;15.998;2024-01-16T01:46:10;-0.22;63.33
69938;DHT22;57248;47.320;15.998;2024-01-16T01:48:44;-0.40;64.30
69938;DHT22;57248;47.320;15.998;2024-01-16T01:51:18;-0.12;62.72
69938;DHT22;57248;47.320;15.998;2024-01-16T01:53:51;-0.36;64.15
69938;DHT22;57248;47.320;15.998;2024-01-16T01:56:18;-0.43;63.73
69938;DHT22;57248;47.320;15.998;2024-01-16T01:58:53;-0.07;61.68
69938;DHT22;57248;47.320;15.998;2024-01-16T02:01:28;-0.54;66.03
69938;DHT22;57248;47.320;15.998;2024-01-16T02:04:01;0.16;60.07
69938;DHT22;57248;47.320;15.998;2024-01-16T02:06:34;0.14;60.51
69938;DHT22;57248;47.320;15.998;2024-01-16T02:09:06;-0.19;63.07
69938;DHT22;57248;47.320;15.998;2024-01-16T02:11:42;-0.57;64.58
69938;DHT22;57248;47.320;15.998;2024-01-16T02:14:08;-0.66;64.98
69938;DHT22;57248;47.320;15.998;2024-01-16T02:16:42;-0.64;64.09
69938;DHT22;57248;47.320;15.998;2024-01-16T02:19:10;-0.85;65.66
69938;DHT22;57248;47.320;15.998;2024-01-16T02:21:47;-1.19;68.64
69938;DHT22;57248;47.320;15.998;2024-01-16T02:24:22;-1.38;69.69
69938;DHT22;57248;47.320;15.998;2024-01-16T02:26:47;-1.50;69.08
69938;DHT22;57248;47.320;15.998;2024-01-16T02:29:26;-1.01;66.20
69938;DHT22;57248;47.320;15.998;2024-01-16T02:32:05;-0.53;61.78
69938;DHT22;57248;47.320;15.998;2024-01-16T02:34:37;-0.33;61.58
69938;DHT22;57248;47.320;15.998;2024-01-16T02:37:09;-0.70;63.31
69938;DHT22;57248;47.320;15.998;2024-01-16T02:39:43;-0.87;63.67
69938;DHT22;57248;47.320;15.998;2024-01-16T02:42:15;-0.37;60.87
69938;DHT22;57248;47.320;15.998;2024-01-16T02:44:47;-0.52;62.37
69938;DHT22;57248;47.320;15.998;2024-01-16T02:47:19;-0.74;63.51
69938;DHT22;57248;47.320;15.998;2024-01-16T02:49:51;-0.34;59.89
69938;DHT22;57248;47.320;15.998;2024-01-16T02:52:23;-0.67;62.13
69938;DHT22;57248;47.320;15.998;2024-01-16T02:54:55;-0.88;63.34
69938;DHT22;57248;47.320;15.998;2024-01-16T02:57:20;-1.11;64.56
69938;DHT22;57248;47.320;15.998;2024-01-16T02:59:53;-1.28;64.39
69938;DHT22;57248;47.320;15.998;2024-01-16T03:02:25;-0.84;63.10
69938;DHT22;57248;47.320;15.998;2024-01-16T03:04:57;-1.15;64.37
69938;DHT22;57248;47.320;15.998;2024-01-16T03:07:22;-1.01;62.75
69938;DHT22;57248;47.320;15.998;2024-01-16T03:09:55;-1.12;63.80
69938;DHT22;57248;47.320;15.998;2024-01-16T03:12:27;-1.13;63.16
69938;DHT22;57248;47.320;15.998;2024-01-16T03:14:59;-1.18;63.01
69938;DHT22;57248;47.320;15.998;2024-01-16T03:17:32;-1.45;64.81
69938;DHT22;57248;47.320;15.998;2024-01-16T03:19:57;-1.55;65.74
69938;DHT22;57248;47.320;15.998;2024-01-16T03:22:30;-1.63;67.48
69938;DHT22;57248;47.320;15.998;2024-01-16T03:25:02;-1.32;64.90
69938;DHT22;57248;47.320;15.998;2024-01-16T03:27:34;-1.39;65.26
69938;DHT22;57248;47.320;15.998;2024-01-16T03:30:06;-1.53;65.79
69938;DHT22;57248;47.320;15.998;2024-01-16T03:32:45;-1.55;65.83
69938;DHT22;57248;47.320;15.998;2024-01-16T03:35:17;-1.29;64.23
69938;DHT22;57248;47.320;15.998;2024-01-16T03:37:49;-0.84;62.41
69938;DHT22;57248;47.320;15.998;2024-01-16T03:40:21;-0.91;63.74
69938;DHT22;57248;47.320;15.998;2024-01-16T03:42:53;-0.95;64.14
69938;DHT22;57248;47.320;15.998;2024-01-16T03:45:26;-1.16;64.06
69938;DHT22;57248;47.320;15.998;2024-01-16T03:47:51;-1.15;64.13
69938;DHT22;57248;47.320;15.998;2024-01-16T03:50:24;-0.77;62.03
69938;DHT22;57248;47.320;15.998;2024-01-16T03:52:56;-0.15;58.98
69938;DHT22;57248;47.320;15.998;2024-01-16T03:55:28;-0.46;59.75
69938;DHT22;57248;47.320;15.998;2024-01-16T03:58:00;-1.06;63.31
69938;DHT22;57248;47.320;15.998;2024-01-16T04:00:32;-1.35;65.40
69938;DHT22;57248;47.320;15.998;2024-01-16T04:03:04;-1.40;65.69
69938;DHT22;57248;47.320;15.998;2024-01-16T04:05:29;-1.59;66.21
69938;DHT22;57248;47.320;15.998;2024-01-16T04:08:02;-1.76;67.70
69938;DHT22;57248;47.320;15.998;2024-01-16T04:10:34;-2.18;68.48
69938;DHT22;57248;47.320;15.998;2024-01-16T04:13:06;-1.77;66.72
69938;DHT22;57248;47.320;15.998;2024-01-16T04:15:38;-1.81;66.46
69938;DHT22;57248;47.320;15.998;2024-01-16T04:18:04;-1.90;67.12
69938;DHT22;57248;47.320;15.998;2024-01-16T04:20:36;-1.95;67.24
69938;DHT22;57248;47.320;15.998;2024-01-16T04:23:08;-2.02;67.65
69938;DHT22;57248;47.320;15.998;2024-01-16T04:25:40;-1.98;67.47
69938;DHT22;57248;47.320;15.998;2024-01-16T04:28:12;-1.93;67.21
69938;DHT22;57248;47.320;15.998;2024-01-16T04:30:51;-1.35;65.94
69938;DHT22;57248;47.320;15.998;2024-01-16T04:33:23;-1.36;65.46
69938;DHT22;57248;47.320;15.998;2024-01-16T04:35:55;-1.25;65.64
69938;DHT22;57248;47.320;15.998;2024-01-16T04:38:27;-1.16;65.70
69938;DHT22;57248;47.320;15.998;2024-01-16T04:40:52;-0.92;63.71
69938;DHT22;57248;47.320;15.998;2024-01-16T04:43:24;-1.11;65.18
69938;DHT22;57248;47.320;15.998;2024-01-16T04:45:56;-0.89;64.05
69938;DHT22;57248;47.320;15.998;2024-01-16T04:48:28;-0.49;63.04
69938;DHT22;57248;47.320;15.998;2024-01-16T04:51:00;1.00;68.15
69938;DHT22;57248;47.320;15.998;2024-01-16T04:53:25;1.94;70.49
69938;DHT22;57248;47.320;15.998;2024-01-16T04:55:57;3.70;73.98
69938;DHT22;57248;47.320;15.998;2024-01-16T04:58:29;3.48;65.03
69938;DHT22;57248;47.320;15.998;2024-01-16T05:01:01;1.93;62.54
69938;DHT22;57248;47.320;15.998;2024-01-16T05:03:33;1.86;56.84
69938;DHT22;57248;47.320;15.998;2024-01-16T05:06:12;0.43;60.51
69938;DHT22;57248;47.320;15.998;2024-01-16T05:08:45;0.14;61.55
69938;DHT22;57248;47.320;15.998;2024-01-16T05:11:18;-0.06;61.70
69938;DHT22;57248;47.320;15.998;2024-01-16T05:13:50;-0.16;61.74
69938;DHT22;57248;47.320;15.998;2024-01-16T05:16:28;-0.05;60.80
69938;DHT22;57248;47.320;15.998;2024-01-16T05:19:00;0.14;60.56
69938;DHT22;57248;47.320;15.998;2024-01-16T05:21:25;0.05;60.57
69938;DHT22;57248;47.320;15.998;2024-01-16T05:23:57;-0.02;60.43
69938;DHT22;57248;47.320;15.998;2024-01-16T05:26:36;-0.07;60.30
69938;DHT22;57248;47.320;15.998;2024-01-16T05:29:09;-0.32;61.69
69938;DHT22;57248;47.320;15.998;2024-01-16T05:31:48;-0.38;61.37
69938;DHT22;57248;47.320;15.998;2024-01-16T05:34:20;-0.40;61.30
69938;DHT22;57248;47.320;15.998;2024-01-16T05:36:52;-0.33;60.92
69938;DHT22;57248;47.320;15.998;2024-01-16T05:39:18;-0.46;60.95
69938;DHT22;57248;47.320;15.998;2024-01-16T05:41:50;-0.40;61.25
69938;DHT22;57248;47.320;15.998;2024-01-16T05:44:22;-0.66;62.36
69938;DHT22;57248;47.320;15.998;2024-01-16T05:46:54;-0.66;61.91
69938;DHT22;57248;47.320;15.998;2024-01-16T05:49:26;-0.54;60.59
69938;DHT22;57248;47.320;15.998;2024-01-16T05:51:59;-0.88;62.63
69938;DHT22;57248;47.320;15.998;2024-01-16T05:54:31;-1.11;64.31
69938;DHT22;57248;47.320;15.998;2024-01-16T05:56:56;-1.06;62.51
69938;DHT22;57248;47.320;15.998;2024-01-16T05:59:30;-1.34;64.34
69938;DHT22;57248;47.320;15.998;2024-01-16T06:02:02;-1.73;66.33
69938;DHT22;57248;47.320;15.998;2024-01-16T06:04:34;-1.81;67.42
69938;DHT22;57248;47.320;15.998;2024-01-16T06:07:06;-1.91;66.14
69938;DHT22;57248;47.320;15.998;2024-01-16T06:09:41;-2.04;67.99
69938;DHT22;57248;47.320;15.998;2024-01-16T06:12:13;-1.98;67.43
69938;DHT22;57248;47.320;15.998;2024-01-16T06:14:46;-2.11;67.58
69938;DHT22;57248;47.320;15.998;2024-01-16T06:17:18;-2.14;68.22
69938;DHT22;57248;47.320;15.998;2024-01-16T06:19:50;-2.36;69.17
69938;DHT22;57248;47.320;15.998;2024-01-16T06:22:31;-2.59;70.13
69938;DHT22;57248;47.320;15.998;2024-01-16T06:25:17;-2.59;70.37
69938;DHT22;57248;47.320;15.998;2024-01-16T06:27:49;-2.63;70.93
69938;DHT22;57248;47.320;15.998;2024-01-16T06:30:24;-2.75;70.67
69938;DHT22;57248;47.320;15.998;2024-01-16T06:33:03;-2.88;71.39
69938;DHT22;57248;47.320;15.998;2024-01-16T06:35:36;-2.67;69.94
69938;DHT22;57248;47.320;15.998;2024-01-16T06:38:08;-2.80;71.27
69938;DHT22;57248;47.320;15.998;2024-01-16T06:40:40;-3.01;72.60
69938;DHT22;57248;47.320;15.998;2024-01-16T06:43:05;-3.25;73.37
69938;DHT22;57248;47.320;15.998;2024-01-16T06:45:38;-3.07;73.29
69938;DHT22;57248;47.320;15.998;2024-01-16T06:48:10;-3.00;72.37
69938;DHT22;57248;47.320;15.998;2024-01-16T06:50:42;-2.80;71.38
69938;DHT22;57248;47.320;15.998;2024-01-16T06:53:14;-2.94;72.62
69938;DHT22;57248;47.320;15.998;2024-01-16T06:55:40;-2.87;72.39
69938;DHT22;57248;47.320;15.998;2024-01-16T06:58:12;-2.66;69.99
69938;DHT22;57248;47.320;15.998;2024-01-16T07:00:46;-3.01;72.73
69938;DHT22;57248;47.320;15.998;2024-01-16T07:03:18;-2.52;70.21
69938;DHT22;57248;47.320;15.998;2024-01-16T07:05:50;-2.04;67.86
69938;DHT22;57248;47.320;15.998;2024-01-16T07:08:22;-1.98;68.53
69938;DHT22;57248;47.320;15.998;2024-01-16T07:10:48;-1.77;67.61
69938;DHT22;57248;47.320;15.998;2024-01-16T07:13:21;-1.56;67.92
69938;DHT22;57248;47.320;15.998;2024-01-16T07:15:55;-1.29;66.01
69938;DHT22;57248;47.320;15.998;2024-01-16T07:18:28;-1.15;66.74
69938;DHT22;57248;47.320;15.998;2024-01-16T07:21:00;-1.04;66.14
69938;DHT22;57248;47.320;15.998;2024-01-16T07:23:33;-0.85;66.97
69938;DHT22;57248;47.320;15.998;2024-01-16T07:26:05;-0.58;67.41
69938;DHT22;57248;47.320;15.998;2024-01-16T07:28:31;-0.46;66.15
69938;DHT22;57248;47.320;15.998;2024-01-16T07:31:10;-0.71;65.98
69938;DHT22;57248;47.320;15.998;2024-01-16T07:33:43;-0.38;65.83
69938;DHT22;57248;47.320;15.998;2024-01-16T07:36:15;-0.34;65.48
69938;DHT22;57248;47.320;15.998;2024-01-16T07:38:47;-0.07;66.24
69938;DHT22;57248;47.320;15.998;2024-01-16T07:41:19;0.14;65.73
69938;DHT22;57248;47.320;15.998;2024-01-16T07:43:51;0.69;64.87
69938;DHT22;57248;47.320;15.998;2024-01-16T07:46:23;0.57;65.22
69938;DHT22;57248;47.320;15.998;2024-01-16T07:48:55;0.43;64.04
69938;DHT22;57248;47.320;15.998;2024-01-16T07:51:27;0.59;63.85
69938;DHT22;57248;47.320;15.998;2024-01-16T07:54:07;0.59;63.65
69938;DHT22;57248;47.320;15.998;2024-01-16T07:56:39;0.57;63.90
69938;DHT22;57248;47.320;15.998;2024-01-16T07:59:11;0.69;62.65
69938;DHT22;57248;47.320;15.998;2024-01-16T08:01:36;0.73;63.56
69938;DHT22;57248;47.320;15.998;2024-01-16T08:04:09;1.05;62.83
69938;DHT22;57248;47.320;15.998;2024-01-16T08:06:42;1.15;62.88
69938;DHT22;57248;47.320;15.998;2024-01-16T08:09:14;1.56;62.78
69938;DHT22;57248;47.320;15.998;2024-01-16T08:11:48;2.61;61.37
69938;DHT22;57248;47.320;15.998;2024-01-16T08:14:21;2.40;59.11
69938;DHT22;57248;47.320;15.998;2024-01-16T08:16:53;2.40;60.72
69938;DHT22;57248;47.320;15.998;2024-01-16T08:19:25;2.92;58.76
69938;DHT22;57248;47.320;15.998;2024-01-16T08:21:57;3.60;57.56
69938;DHT22;57248;47.320;15.998;2024-01-16T08:24:29;4.05;56.84
69938;DHT22;57248;47.320;15.998;2024-01-16T08:27:01;4.37;55.73
69938;DHT22;57248;47.320;15.998;2024-01-16T08:29:34;4.84;57.54
69938;DHT22;57248;47.320;15.998;2024-01-16T08:32:13;5.32;56.21
69938;DHT22;57248;47.320;15.998;2024-01-16T08:34:46;4.95;54.74
69938;DHT22;57248;47.320;15.998;2024-01-16T08:37:18;4.95;53.10
69938;DHT22;57248;47.320;15.998;2024-01-16T08:39:51;4.61;53.06
69938;DHT22;57248;47.320;15.998;2024-01-16T08:42:23;4.10;53.18
69938;DHT22;57248;47.320;15.998;2024-01-16T08:44:56;4.05;54.00
69938;DHT22;57248;47.320;15.998;2024-01-16T08:47:28;3.85;54.12
69938;DHT22;57248;47.320;15.998;2024-01-16T08:50:01;3.47;55.68
69938;DHT22;57248;47.320;15.998;2024-01-16T08:52:34;3.78;53.88
69938;DHT22;57248;47.320;15.998;2024-01-16T08:55:08;4.40;54.11
69938;DHT22;57248;47.320;15.998;2024-01-16T08:57:34;4.80;52.89
69938;DHT22;57248;47.320;15.998;2024-01-16T09:00:06;5.32;51.81
69938;DHT22;57248;47.320;15.998;2024-01-16T09:02:40;6.00;49.22
69938;DHT22;57248;47.320;15.998;2024-01-16T09:05:07;7.42;45.97
69938;DHT22;57248;47.320;15.998;2024-01-16T09:07:39;6.90;45.96
69938;DHT22;57248;47.320;15.998;2024-01-16T09:10:05;6.38;46.78
69938;DHT22;57248;47.320;15.998;2024-01-16T09:12:37;6.35;47.53
69938;DHT22;57248;47.320;15.998;2024-01-16T09:15:09;8.00;46.35
69938;DHT22;57248;47.320;15.998;2024-01-16T09:17:41;9.65;44.19
69938;DHT22;57248;47.320;15.998;2024-01-16T09:20:13;9.53;42.56
69938;DHT22;57248;47.320;15.998;2024-01-16T09:22:45;9.01;41.46
69938;DHT22;57248;47.320;15.998;2024-01-16T09:25:18;9.70;39.64
69938;DHT22;57248;47.320;15.998;2024-01-16T09:27:43;8.84;41.16
69938;DHT22;57248;47.320;15.998;2024-01-16T09:30:15;7.82;41.70
69938;DHT22;57248;47.320;15.998;2024-01-16T09:32:48;8.09;41.48
69938;DHT22;57248;47.320;15.998;2024-01-16T09:35:20;7.87;41.46
69938;DHT22;57248;47.320;15.998;2024-01-16T09:37:53;7.82;40.76
69938;DHT22;57248;47.320;15.998;2024-01-16T09:40:26;7.97;40.67
69938;DHT22;57248;47.320;15.998;2024-01-16T09:42:58;8.81;41.11
69938;DHT22;57248;47.320;15.998;2024-01-16T09:45:24;8.58;41.01
69938;DHT22;57248;47.320;15.998;2024-01-16T09:47:59;9.47;39.53
69938;DHT22;57248;47.320;15.998;2024-01-16T09:50:32;8.81;40.04
69938;DHT22;57248;47.320;15.998;2024-01-16T09:53:04;10.94;36.30
69938;DHT22;57248;47.320;15.998;2024-01-16T09:55:37;12.12;37.21
69938;DHT22;57248;47.320;15.998;2024-01-16T09:58:12;10.83;35.66
69938;DHT22;57248;47.320;15.998;2024-01-16T10:00:47;9.13;38.40
69938;DHT22;57248;47.320;15.998;2024-01-16T10:03:20;9.92;38.07
69938;DHT22;57248;47.320;15.998;2024-01-16T10:05:53;8.86;38.23
69938;DHT22;57248;47.320;15.998;2024-01-16T10:08:19;9.77;36.97
69938;DHT22;57248;47.320;15.998;2024-01-16T10:10:53;8.93;38.24
69938;DHT22;57248;47.320;15.998;2024-01-16T10:13:26;10.22;36.72
69938;DHT22;57248;47.320;15.998;2024-01-16T10:15:59;8.67;37.09
69938;DHT22;57248;47.320;15.998;2024-01-16T10:18:26;9.19;38.79
69938;DHT22;57248;47.320;15.998;2024-01-16T10:20:59;10.02;37.86
69938;DHT22;57248;47.320;15.998;2024-01-16T10:23:32;9.29;34.94
69938;DHT22;57248;47.320;15.998;2024-01-16T10:26:11;8.75;35.05
69938;DHT22;57248;47.320;15.998;2024-01-16T10:28:43;10.29;33.98
69938;DHT22;57248;47.320;15.998;2024-01-16T10:31:30;9.34;34.71
69938;DHT22;57248;47.320;15.998;2024-01-16T10:34:18;9.27;34.85
69938;DHT22;57248;47.320;15.998;2024-01-16T10:36:53;8.20;35.34
69938;DHT22;57248;47.320;15.998;2024-01-16T10:39:30;10.76;34.24
69938;DHT22;57248;47.320;15.998;2024-01-16T10:42:02;12.29;32.26
69938;DHT22;57248;47.320;15.998;2024-01-16T10:44:34;13.30;32.44
69938;DHT22;57248;47.320;15.998;2024-01-16T10:47:10;13.51;31.99
69938;DHT22;57248;47.320;15.998;2024-01-16T10:49:43;14.58;29.32
69938;DHT22;57248;47.320;15.998;2024-01-16T10:52:17;12.52;32.31
69938;DHT22;57248;47.320;15.998;2024-01-16T10:54:43;11.38;30.16
69938;DHT22;57248;47.320;15.998;2024-01-16T10:57:19;11.08;31.79
69938;DHT22;57248;47.320;15.998;2024-01-16T11:00:04;10.33;33.01
69938;DHT22;57248;47.320;15.998;2024-01-16T11:03:01;10.97;33.65
69938;DHT22;57248;47.320;15.998;2024-01-16T11:05:36;12.48;31.77
69938;DHT22;57248;47.320;15.998;2024-01-16T11:08:10;13.40;30.63
69938;DHT22;57248;47.320;15.998;2024-01-16T11:10:50;11.07;32.96
69938;DHT22;57248;47.320;15.998;2024-01-16T11:13:23;10.46;32.56
69938;DHT22;57248;47.320;15.998;2024-01-16T11:15:57;11.15;31.90
69938;DHT22;57248;47.320;15.998;2024-01-16T11:18:31;11.39;33.06
69938;DHT22;57248;47.320;15.998;2024-01-16T11:21:14;9.67;33.23
69938;DHT22;57248;47.320;15.998;2024-01-16T11:23:48;10.16;33.17
69938;DHT22;57248;47.320;15.998;2024-01-16T11:26:34;11.32;31.26
69938;DHT22;57248;47.320;15.998;2024-01-16T11:32:05;12.17;30.30
69938;DHT22;57248;47.320;15.998;2024-01-16T11:37:13;11.32;30.82
69938;DHT22;57248;47.320;15.998;2024-01-16T11:39:45;14.38;29.15
69938;DHT22;57248;47.320;15.998;2024-01-16T11:42:25;16.06;27.00
69938;DHT22;57248;47.320;15.998;2024-01-16T11:44:59;15.16;27.15
69938;DHT22;57248;47.320;15.998;2024-01-16T11:47:31;15.23;26.44
69938;DHT22;57248;47.320;15.998;2024-01-16T11:50:10;15.57;26.52
69938;DHT22;57248;47.320;15.998;2024-01-16T11:52:45;14.83;29.49
69938;DHT22;57248;47.320;15.998;2024-01-16T11:56:06;13.53;28.89
69938;DHT22;57248;47.320;15.998;2024-01-16T11:59:08;13.87;29.52
69938;DHT22;57248;47.320;15.998;2024-01-16T12:01:45;13.35;27.54
69938;DHT22;57248;47.320;15.998;2024-01-16T12:04:17;14.93;28.48
69938;DHT22;57248;47.320;15.998;2024-01-16T12:06:57;12.77;27.06
69938;DHT22;57248;47.320;15.998;2024-01-16T12:09:29;13.23;28.18
69938;DHT22;57248;47.320;15.998;2024-01-16T12:12:02;13.30;26.83
69938;DHT22;57248;47.320;15.998;2024-01-16T12:14:34;15.55;26.15
69938;DHT22;57248;47.320;15.998;2024-01-16T12:17:11;15.68;26.19
69938;DHT22;57248;47.320;15.998;2024-01-16T12:19:44;16.95;25.59
69938;DHT22;57248;47.320;15.998;2024-01-16T12:22:16;17.14;25.13
69938;DHT22;57248;47.320;15.998;2024-01-16T12:24:57;15.49;26.46
69938;DHT22;57248;47.320;15.998;2024-01-16T12:27:31;11.75;28.07
69938;DHT22;57248;47.320;15.998;2024-01-16T12:30:07;11.99;29.58
69938;DHT22;57248;47.320;15.998;2024-01-16T12:32:39;11.57;29.53
69938;DHT22;57248;47.320;15.998;2024-01-16T12:35:21;12.64;29.35
69938;DHT22;57248;47.320;15.998;2024-01-16T12:38:01;12.23;29.70
69938;DHT22;57248;47.320;15.998;2024-01-16T12:40:49;11.12;30.69
69938;DHT22;57248;47.320;15.998;2024-01-16T12:43:23;12.50;30.88
69938;DHT22;57248;47.320;15.998;2024-01-16T12:45:56;11.11;30.63
69938;DHT22;57248;47.320;15.998;2024-01-16T12:48:29;10.36;31.17
69938;DHT22;57248;47.320;15.998;2024-01-16T12:51:02;11.18;30.52
69938;DHT22;57248;47.320;15.998;2024-01-16T12:53:35;10.97;31.03
69938;DHT22;57248;47.320;15.998;2024-01-16T12:56:11;10.22;31.78
69938;DHT22;57248;47.320;15.998;2024-01-16T12:58:43;9.43;31.43
69938;DHT22;57248;47.320;15.998;2024-01-16T13:01:26;9.50;32.11
69938;DHT22;57248;47.320;15.998;2024-01-16T13:04:03;10.39;31.92
69938;DHT22;57248;47.320;15.998;2024-01-16T13:06:36;10.63;31.38
69938;DHT22;57248;47.320;15.998;2024-01-16T13:09:10;10.72;31.97
69938;DHT22;57248;47.320;15.998;2024-01-16T13:11:54;10.09;33.06
69938;DHT22;57248;47.320;15.998;2024-01-16T13:14:26;9.65;33.28
69938;DHT22;57248;47.320;15.998;2024-01-16T13:16:58;10.39;32.79
69938;DHT22;57248;47.320;15.998;2024-01-16T13:19:31;9.11;34.06
69938;DHT22;57248;47.320;15.998;2024-01-16T13:22:05;7.47;36.02
69938;DHT22;57248;47.320;15.998;2024-01-16T13:24:38;6.83;37.44
69938;DHT22;57248;47.320;15.998;2024-01-16T13:27:10;6.77;38.12
69938;DHT22;57248;47.320;15.998;2024-01-16T13:29:46;7.20;39.78
69938;DHT22;57248;47.320;15.998;2024-01-16T13:32:18;6.08;40.06
69938;DHT22;57248;47.320;15.998;2024-01-16T13:34:50;6.69;42.93
69938;DHT22;57248;47.320;15.998;2024-01-16T13:37:23;5.98;42.42
69938;DHT22;57248;47.320;15.998;2024-01-16T13:39:55;5.67;44.96
69938;DHT22;57248;47.320;15.998;2024-01-16T13:42:27;5.71;44.36
69938;DHT22;57248;47.320;15.998;2024-01-16T13:45:00;6.46;50.54
69938;DHT22;57248;47.320;15.998;2024-01-16T13:47:32;5.80;44.62
69938;DHT22;57248;47.320;15.998;2024-01-16T13:49:58;5.18;46.88
69938;DHT22;57248;47.320;15.998;2024-01-16T13:52:30;5.12;47.32
69938;DHT22;57248;47.320;15.998;2024-01-16T13:55:02;5.43;47.24
69938;DHT22;57248;47.320;15.998;2024-01-16T13:57:36;5.23;48.05
69938;DHT22;57248;47.320;15.998;2024-01-16T14:00:11;5.04;47.31
69938;DHT22;57248;47.320;15.998;2024-01-16T14:02:48;5.98;49.94
69938;DHT22;57248;47.320;15.998;2024-01-16T14:05:21;4.94;47.88
69938;DHT22;57248;47.320;15.998;2024-01-16T14:07:53;5.31;49.81
69938;DHT22;57248;47.320;15.998;2024-01-16T14:10:26;4.85;48.14
69938;DHT22;57248;47.320;15.998;2024-01-16T14:12:58;4.47;48.08
69938;DHT22;57248;47.320;15.998;2024-01-16T14:15:31;4.68;48.95
69938;DHT22;57248;47.320;15.998;2024-01-16T14:18:03;4.99;47.38
69938;DHT22;57248;47.320;15.998;2024-01-16T14:20:35;5.12;48.03
69938;DHT22;57248;47.320;15.998;2024-01-16T14:23:07;4.64;47.68
69938;DHT22;57248;47.320;15.998;2024-01-16T14:25:40;5.16;47.07
69938;DHT22;57248;47.320;15.998;2024-01-16T14:28:12;5.31;46.34
69938;DHT22;57248;47.320;15.998;2024-01-16T14:30:51;5.02;47.11
69938;DHT22;57248;47.320;15.998;2024-01-16T14:33:23;5.07;46.85
69938;DHT22;57248;47.320;15.998;2024-01-16T14:35:55;4.99;46.87
69938;DHT22;57248;47.320;15.998;2024-01-16T14:38:27;5.56;46.07
69938;DHT22;57248;47.320;15.998;2024-01-16T14:40:59;4.54;46.47
69938;DHT22;57248;47.320;15.998;2024-01-16T14:43:31;4.85;46.85
69938;DHT22;57248;47.320;15.998;2024-01-16T14:46:04;4.67;46.56
69938;DHT22;57248;47.320;15.998;2024-01-16T14:48:38;4.52;47.03
69938;DHT22;57248;47.320;15.998;2024-01-16T14:51:16;4.52;47.55
69938;DHT22;57248;47.320;15.998;2024-01-16T14:53:48;4.29;47.51
69938;DHT22;57248;47.320;15.998;2024-01-16T14:56:23;3.92;48.39
69938;DHT22;57248;47.320;15.998;2024-01-16T14:58:57;3.96;48.35
69938;DHT22;57248;47.320;15.998;2024-01-16T15:01:29;3.82;47.71
69938;DHT22;57248;47.320;15.998;2024-01-16T15:04:01;4.10;47.84
69938;DHT22;57248;47.320;15.998;2024-01-16T15:06:33;3.92;48.74
69938;DHT22;57248;47.320;15.998;2024-01-16T15:09:07;3.63;49.86
69938;DHT22;57248;47.320;15.998;2024-01-16T15:11:44;3.41;50.15
69938;DHT22;57248;47.320;15.998;2024-01-16T15:14:17;3.38;50.37
69938;DHT22;57248;47.320;15.998;2024-01-16T15:16:48;3.14;51.43
69938;DHT22;57248;47.320;15.998;2024-01-16T15:19:23;2.83;52.59
69938;DHT22;57248;47.320;15.998;2024-01-16T15:21:57;2.85;53.20
69938;DHT22;57248;47.320;15.998;2024-01-16T15:24:29;2.78;53.08
69938;DHT22;57248;47.320;15.998;2024-01-16T15:27:01;2.66;53.59
69938;DHT22;57248;47.320;15.998;2024-01-16T15:29:34;2.44;55.03
69938;DHT22;57248;47.320;15.998;2024-01-16T15:32:06;2.25;56.97
69938;DHT22;57248;47.320;15.998;2024-01-16T15:34:45;1.96;57.34
69938;DHT22;57248;47.320;15.998;2024-01-16T15:37:18;1.77;58.79
69938;DHT22;57248;47.320;15.998;2024-01-16T15:39:50;1.51;59.61
69938;DHT22;57248;47.320;15.998;2024-01-16T15:42:22;1.41;60.61
69938;DHT22;57248;47.320;15.998;2024-01-16T15:44:57;1.17;60.30
69938;DHT22;57248;47.320;15.998;2024-01-16T15:47:29;1.31;59.05
69938;DHT22;57248;47.320;15.998;2024-01-16T15:50:09;1.21;60.72
69938;DHT22;57248;47.320;15.998;2024-01-16T15:52:42;1.18;59.34
69938;DHT22;57248;47.320;15.998;2024-01-16T15:55:14;0.97;59.64
69938;DHT22;57248;47.320;15.998;2024-01-16T15:57:47;0.95;60.05
69938;DHT22;57248;47.320;15.998;2024-01-16T16:00:19;0.87;60.79
69938;DHT22;57248;47.320;15.998;2024-01-16T16:02:52;0.84;61.60
69938;DHT22;57248;47.320;15.998;2024-01-16T16:05:24;0.80;61.76